sensor_id;sensor_type;location;lat;lon;timestamp;P1;durP1;ratioP1;P2;durP2;ratioP2
13108;SDS011;6620;53.734;11.510;2022-09-09T00:06:24;10.30;;;9.23;;
13108;SDS011;6620;53.734;11.510;2022-09-09T00:09:04;10.15;;;9.15;;
13108;SDS011;6620;53.734;11.510;2022-09-09T00:11:48;10.98;;;9.88;;
13108;SDS011;6620;53.734;11.510;2022-09-09T00:17:20;12.25;;;10.82;;
13108;SDS011;6620;53.734;11.510;2022-09-09T00:19:53;12.52;;;11.23;;
13108;SDS011;6620;53.734;11.510;2022-09-09T00:22:22;13.27;;;11.98;;
13108;SDS011;6620;53.734;11.510;2022-09-09T00:29:51;12.40;;;11.23;;
13108;SDS011;6620;53.734;11.510;2022-09-09T00:32:19;11.82;;;10.63;;
13108;SDS011;6620;53.734;11.510;2022-09-09T00:34:52;12.25;;;11.05;;
13108;SDS011;6620;53.734;11.510;2022-09-09T00:37:19;12.55;;;11.35;;
13108;SDS011;6620;53.734;11.510;2022-09-09T00:39:45;12.85;;;11.55;;
13108;SDS011;6620;53.734;11.510;2022-09-09T00:42:37;13.68;;;12.32;;
13108;SDS011;6620;53.734;11.510;2022-09-09T00:45:02;22.75;;;19.20;;
13108;SDS011;6620;53.734;11.510;2022-09-09T00:57:46;18.13;;;14.20;;
13108;SDS011;6620;53.734;11.510;2022-09-09T01:02:53;15.80;;;14.00;;
13108;SDS011;6620;53.734;11.510;2022-09-09T01:07:44;16.63;;;14.23;;
13108;SDS011;6620;53.734;11.510;2022-09-09T01:10:17;16.73;;;14.70;;
13108;SDS011;6620;53.734;11.510;2022-09-09T01:12:46;16.83;;;14.75;;
13108;SDS011;6620;53.734;11.510;2022-09-09T01:15:25;15.60;;;14.02;;
13108;SDS011;6620;53.734;11.510;2022-09-09T01:17:53;15.27;;;13.52;;
13108;SDS011;6620;53.734;11.510;2022-09-09T01:28:22;17.27;;;15.10;;
13108;SDS011;6620;53.734;11.510;2022-09-09T01:30:50;16.95;;;15.07;;
13108;SDS011;6620;53.734;11.510;2022-09-09T01:33:16;17.05;;;15.32;;
13108;SDS011;6620;53.734;11.510;2022-09-09T01:38:10;15.80;;;13.43;;
13108;SDS011;6620;53.734;11.510;2022-09-09T01:40:35;16.27;;;14.00;;
13108;SDS011;6620;53.734;11.510;2022-09-09T01:43:01;15.27;;;13.77;;
13108;SDS011;6620;53.734;11.510;2022-09-09T01:45:26;15.82;;;14.23;;
13108;SDS011;6620;53.734;11.510;2022-09-09T01:47:52;17.75;;;14.82;;
13108;SDS011;6620;53.734;11.510;2022-09-09T01:50:17;15.23;;;13.50;;
13108;SDS011;6620;53.734;11.510;2022-09-09T01:52:43;14.25;;;12.63;;
13108;SDS011;6620;53.734;11.510;2022-09-09T01:55:10;14.27;;;12.85;;
13108;SDS011;6620;53.734;11.510;2022-09-09T02:05:04;13.73;;;12.32;;
13108;SDS011;6620;53.734;11.510;2022-09-09T02:07:44;14.38;;;12.93;;
13108;SDS011;6620;53.734;11.510;2022-09-09T02:12:40;12.90;;;11.60;;
13108;SDS011;6620;53.734;11.510;2022-09-09T02:15:08;13.32;;;11.93;;
13108;SDS011;6620;53.734;11.510;2022-09-09T02:17:36;14.38;;;12.20;;
13108;SDS011;6620;53.734;11.510;2022-09-09T02:20:05;14.60;;;12.70;;
13108;SDS011;6620;53.734;11.510;2022-09-09T02:22:32;13.18;;;11.85;;
13108;SDS011;6620;53.734;11.510;2022-09-09T02:24:59;13.80;;;12.30;;
13108;SDS011;6620;53.734;11.510;2022-09-09T02:27:25;15.30;;;13.70;;
13108;SDS011;6620;53.734;11.510;2022-09-09T02:29:51;16.40;;;14.70;;
13108;SDS011;6620;53.734;11.510;2022-09-09T02:32:17;16.40;;;14.07;;
13108;SDS011;6620;53.734;11.510;2022-09-09T02:34:44;15.52;;;13.93;;
13108;SDS011;6620;53.734;11.510;2022-09-09T02:37:10;16.60;;;14.90;;
13108;SDS011;6620;53.734;11.510;2022-09-09T02:39:36;15.18;;;13.57;;
13108;SDS011;6620;53.734;11.510;2022-09-09T02:42:01;15.35;;;13.80;;
13108;SDS011;6620;53.734;11.510;2022-09-09T02:44:28;16.50;;;14.27;;
13108;SDS011;6620;53.734;11.510;2022-09-09T02:47:07;17.17;;;14.57;;
13108;SDS011;6620;53.734;11.510;2022-09-09T02:52:18;31.90;;;20.33;;
13108;SDS011;6620;53.734;11.510;2022-09-09T02:54:47;21.42;;;18.65;;
13108;SDS011;6620;53.734;11.510;2022-09-09T02:57:22;23.38;;;20.88;;
13108;SDS011;6620;53.734;11.510;2022-09-09T02:59:48;25.40;;;22.70;;
13108;SDS011;6620;53.734;11.510;2022-09-09T03:02:14;26.98;;;23.92;;
13108;SDS011;6620;53.734;11.510;2022-09-09T03:04:40;26.98;;;24.13;;
13108;SDS011;6620;53.734;11.510;2022-09-09T03:07:06;29.55;;;25.60;;
13108;SDS011;6620;53.734;11.510;2022-09-09T03:09:31;29.70;;;25.83;;
13108;SDS011;6620;53.734;11.510;2022-09-09T03:11:57;27.48;;;24.42;;
13108;SDS011;6620;53.734;11.510;2022-09-09T03:14:23;30.92;;;27.58;;
13108;SDS011;6620;53.734;11.510;2022-09-09T03:16:53;29.15;;;26.05;;
13108;SDS011;6620;53.734;11.510;2022-09-09T03:19:19;29.90;;;25.92;;
13108;SDS011;6620;53.734;11.510;2022-09-09T03:21:45;27.48;;;24.63;;
13108;SDS011;6620;53.734;11.510;2022-09-09T03:24:10;29.23;;;25.20;;
13108;SDS011;6620;53.734;11.510;2022-09-09T03:26:36;26.77;;;23.87;;
13108;SDS011;6620;53.734;11.510;2022-09-09T03:29:02;24.45;;;21.95;;
13108;SDS011;6620;53.734;11.510;2022-09-09T03:31:27;23.98;;;21.45;;
13108;SDS011;6620;53.734;11.510;2022-09-09T03:33:55;23.05;;;20.65;;
13108;SDS011;6620;53.734;11.510;2022-09-09T03:36:20;24.33;;;21.83;;
13108;SDS011;6620;53.734;11.510;2022-09-09T03:38:45;22.38;;;20.08;;
13108;SDS011;6620;53.734;11.510;2022-09-09T03:41:11;22.73;;;20.43;;
13108;SDS011;6620;53.734;11.510;2022-09-09T03:43:37;21.67;;;19.38;;
13108;SDS011;6620;53.734;11.510;2022-09-09T03:46:02;23.05;;;20.65;;
13108;SDS011;6620;53.734;11.510;2022-09-09T03:48:28;23.13;;;20.55;;
13108;SDS011;6620;53.734;11.510;2022-09-09T03:50:54;28.13;;;24.42;;
13108;SDS011;6620;53.734;11.510;2022-09-09T03:53:21;26.73;;;22.45;;
13108;SDS011;6620;53.734;11.510;2022-09-09T03:55:48;27.30;;;22.90;;
13108;SDS011;6620;53.734;11.510;2022-09-09T03:58:14;27.30;;;23.23;;
13108;SDS011;6620;53.734;11.510;2022-09-09T04:00:39;25.42;;;22.48;;
13108;SDS011;6620;53.734;11.510;2022-09-09T04:03:07;27.77;;;24.25;;
13108;SDS011;6620;53.734;11.510;2022-09-09T04:05:32;31.75;;;27.40;;
13108;SDS011;6620;53.734;11.510;2022-09-09T04:07:58;27.30;;;24.25;;
13108;SDS011;6620;53.734;11.510;2022-09-09T04:10:24;26.05;;;23.17;;
13108;SDS011;6620;53.734;11.510;2022-09-09T04:12:49;29.47;;;24.13;;
13108;SDS011;6620;53.734;11.510;2022-09-09T04:15:14;27.93;;;23.83;;
13108;SDS011;6620;53.734;11.510;2022-09-09T04:17:39;28.75;;;25.63;;
13108;SDS011;6620;53.734;11.510;2022-09-09T04:20:05;28.73;;;25.63;;
13108;SDS011;6620;53.734;11.510;2022-09-09T04:22:30;29.48;;;25.15;;
13108;SDS011;6620;53.734;11.510;2022-09-09T04:24:55;28.73;;;24.33;;
13108;SDS011;6620;53.734;11.510;2022-09-09T04:27:20;29.03;;;25.63;;
13108;SDS011;6620;53.734;11.510;2022-09-09T04:29:46;29.43;;;26.27;;
13108;SDS011;6620;53.734;11.510;2022-09-09T04:32:11;27.92;;;24.98;;
13108;SDS011;6620;53.734;11.510;2022-09-09T04:34:36;28.48;;;24.95;;
13108;SDS011;6620;53.734;11.510;2022-09-09T04:37:02;27.80;;;24.75;;
13108;SDS011;6620;53.734;11.510;2022-09-09T04:39:27;28.10;;;25.10;;
13108;SDS011;6620;53.734;11.510;2022-09-09T04:41:52;28.13;;;24.87;;
13108;SDS011;6620;53.734;11.510;2022-09-09T04:44:18;28.15;;;24.70;;
13108;SDS011;6620;53.734;11.510;2022-09-09T04:46:43;30.13;;;26.48;;
13108;SDS011;6620;53.734;11.510;2022-09-09T04:49:08;26.15;;;23.38;;
13108;SDS011;6620;53.734;11.510;2022-09-09T04:51:33;31.23;;;23.97;;
13108;SDS011;6620;53.734;11.510;2022-09-09T04:53:58;26.53;;;23.73;;
13108;SDS011;6620;53.734;11.510;2022-09-09T04:56:24;27.42;;;23.17;;
13108;SDS011;6620;53.734;11.510;2022-09-09T04:58:51;26.17;;;23.42;;
13108;SDS011;6620;53.734;11.510;2022-09-09T05:01:20;24.77;;;22.25;;
13108;SDS011;6620;53.734;11.510;2022-09-09T05:03:47;28.17;;;23.05;;
13108;SDS011;6620;53.734;11.510;2022-09-09T05:06:16;29.42;;;24.95;;
13108;SDS011;6620;53.734;11.510;2022-09-09T05:08:42;40.28;;;30.42;;
13108;SDS011;6620;53.734;11.510;2022-09-09T05:13:42;26.45;;;22.38;;
13108;SDS011;6620;53.734;11.510;2022-09-09T05:16:08;24.80;;;21.95;;
13108;SDS011;6620;53.734;11.510;2022-09-09T05:18:36;24.58;;;21.00;;
13108;SDS011;6620;53.734;11.510;2022-09-09T05:21:01;24.60;;;21.38;;
13108;SDS011;6620;53.734;11.510;2022-09-09T05:23:27;23.33;;;20.83;;
13108;SDS011;6620;53.734;11.510;2022-09-09T05:25:56;22.90;;;20.13;;
13108;SDS011;6620;53.734;11.510;2022-09-09T05:28:21;23.02;;;20.05;;
13108;SDS011;6620;53.734;11.510;2022-09-09T05:30:46;23.42;;;19.58;;
13108;SDS011;6620;53.734;11.510;2022-09-09T05:33:19;25.95;;;20.77;;
13108;SDS011;6620;53.734;11.510;2022-09-09T05:35:46;21.88;;;19.48;;
13108;SDS011;6620;53.734;11.510;2022-09-09T05:38:11;21.13;;;18.87;;
13108;SDS011;6620;53.734;11.510;2022-09-09T05:40:36;24.55;;;18.77;;
13108;SDS011;6620;53.734;11.510;2022-09-09T05:43:01;20.27;;;18.10;;
13108;SDS011;6620;53.734;11.510;2022-09-09T05:45:26;21.05;;;18.77;;
13108;SDS011;6620;53.734;11.510;2022-09-09T05:47:52;25.75;;;21.40;;
13108;SDS011;6620;53.734;11.510;2022-09-09T05:50:19;21.67;;;18.73;;
13108;SDS011;6620;53.734;11.510;2022-09-09T05:52:45;21.15;;;18.65;;
13108;SDS011;6620;53.734;11.510;2022-09-09T05:55:10;20.83;;;18.27;;
13108;SDS011;6620;53.734;11.510;2022-09-09T05:57:35;23.03;;;18.33;;
13108;SDS011;6620;53.734;11.510;2022-09-09T06:00:00;19.40;;;16.57;;
13108;SDS011;6620;53.734;11.510;2022-09-09T06:02:26;17.92;;;16.02;;
13108;SDS011;6620;53.734;11.510;2022-09-09T06:04:51;18.13;;;15.88;;
13108;SDS011;6620;53.734;11.510;2022-09-09T06:07:16;19.87;;;17.70;;
13108;SDS011;6620;53.734;11.510;2022-09-09T06:09:41;21.58;;;16.00;;
13108;SDS011;6620;53.734;11.510;2022-09-09T06:12:07;19.03;;;16.20;;
13108;SDS011;6620;53.734;11.510;2022-09-09T06:14:32;19.95;;;15.98;;
13108;SDS011;6620;53.734;11.510;2022-09-09T06:16:57;16.48;;;14.65;;
13108;SDS011;6620;53.734;11.510;2022-09-09T06:19:22;19.70;;;16.17;;
13108;SDS011;6620;53.734;11.510;2022-09-09T06:21:51;18.33;;;14.98;;
13108;SDS011;6620;53.734;11.510;2022-09-09T06:24:17;19.95;;;15.20;;
13108;SDS011;6620;53.734;11.510;2022-09-09T06:26:44;17.77;;;15.73;;
13108;SDS011;6620;53.734;11.510;2022-09-09T06:29:10;19.25;;;14.65;;
13108;SDS011;6620;53.734;11.510;2022-09-09T06:31:35;16.65;;;14.32;;
13108;SDS011;6620;53.734;11.510;2022-09-09T06:34:01;17.55;;;15.70;;
13108;SDS011;6620;53.734;11.510;2022-09-09T06:36:29;16.73;;;14.77;;
13108;SDS011;6620;53.734;11.510;2022-09-09T06:38:55;17.40;;;14.77;;
13108;SDS011;6620;53.734;11.510;2022-09-09T06:41:21;16.15;;;14.00;;
13108;SDS011;6620;53.734;11.510;2022-09-09T06:43:47;16.52;;;13.65;;
13108;SDS011;6620;53.734;11.510;2022-09-09T06:46:19;14.20;;;12.70;;
13108;SDS011;6620;53.734;11.510;2022-09-09T06:48:45;14.27;;;12.77;;
13108;SDS011;6620;53.734;11.510;2022-09-09T06:53:39;13.88;;;12.15;;
13108;SDS011;6620;53.734;11.510;2022-09-09T06:58:39;14.52;;;12.43;;
13108;SDS011;6620;53.734;11.510;2022-09-09T07:01:12;14.23;;;12.20;;
13108;SDS011;6620;53.734;11.510;2022-09-09T07:03:37;12.27;;;11.07;;
13108;SDS011;6620;53.734;11.510;2022-09-09T07:06:03;12.00;;;10.80;;
13108;SDS011;6620;53.734;11.510;2022-09-09T07:08:29;11.10;;;10.00;;
13108;SDS011;6620;53.734;11.510;2022-09-09T07:11:01;13.95;;;10.68;;
13108;SDS011;6620;53.734;11.510;2022-09-09T07:13:26;13.38;;;9.27;;
13108;SDS011;6620;53.734;11.510;2022-09-09T07:15:52;11.48;;;10.27;;
13108;SDS011;6620;53.734;11.510;2022-09-09T07:18:18;12.68;;;10.50;;
13108;SDS011;6620;53.734;11.510;2022-09-09T07:20:52;14.02;;;9.50;;
13108;SDS011;6620;53.734;11.510;2022-09-09T07:23:17;10.05;;;9.05;;
13108;SDS011;6620;53.734;11.510;2022-09-09T07:25:45;9.55;;;8.27;;
13108;SDS011;6620;53.734;11.510;2022-09-09T07:28:10;10.50;;;8.63;;
13108;SDS011;6620;53.734;11.510;2022-09-09T07:30:35;10.17;;;8.63;;
13108;SDS011;6620;53.734;11.510;2022-09-09T07:33:01;8.50;;;7.70;;
13108;SDS011;6620;53.734;11.510;2022-09-09T07:35:27;8.48;;;7.65;;
13108;SDS011;6620;53.734;11.510;2022-09-09T07:37:52;9.50;;;8.40;;
13108;SDS011;6620;53.734;11.510;2022-09-09T07:40:18;11.73;;;9.20;;
13108;SDS011;6620;53.734;11.510;2022-09-09T07:42:46;9.00;;;8.10;;
13108;SDS011;6620;53.734;11.510;2022-09-09T07:45:12;12.65;;;10.15;;
13108;SDS011;6620;53.734;11.510;2022-09-09T07:47:37;9.82;;;8.48;;
13108;SDS011;6620;53.734;11.510;2022-09-09T07:50:02;10.63;;;8.23;;
13108;SDS011;6620;53.734;11.510;2022-09-09T07:52:27;9.20;;;8.10;;
13108;SDS011;6620;53.734;11.510;2022-09-09T07:54:53;8.90;;;7.57;;
13108;SDS011;6620;53.734;11.510;2022-09-09T07:57:18;14.27;;;10.57;;
13108;SDS011;6620;53.734;11.510;2022-09-09T07:59:43;9.00;;;8.10;;
13108;SDS011;6620;53.734;11.510;2022-09-09T08:02:09;7.55;;;6.63;;
13108;SDS011;6620;53.734;11.510;2022-09-09T08:04:34;7.60;;;6.80;;
13108;SDS011;6620;53.734;11.510;2022-09-09T08:07:00;10.23;;;7.80;;
13108;SDS011;6620;53.734;11.510;2022-09-09T08:09:26;6.93;;;6.22;;
13108;SDS011;6620;53.734;11.510;2022-09-09T08:11:55;7.43;;;6.35;;
13108;SDS011;6620;53.734;11.510;2022-09-09T08:14:21;6.93;;;6.22;;
13108;SDS011;6620;53.734;11.510;2022-09-09T08:16:49;6.28;;;5.70;;
13108;SDS011;6620;53.734;11.510;2022-09-09T08:19:14;6.60;;;6.00;;
13108;SDS011;6620;53.734;11.510;2022-09-09T08:21:43;7.05;;;5.72;;
13108;SDS011;6620;53.734;11.510;2022-09-09T08:24:09;7.53;;;6.50;;
13108;SDS011;6620;53.734;11.510;2022-09-09T08:26:40;7.55;;;5.82;;
13108;SDS011;6620;53.734;11.510;2022-09-09T08:29:09;7.32;;;5.70;;
13108;SDS011;6620;53.734;11.510;2022-09-09T08:31:39;8.13;;;5.72;;
13108;SDS011;6620;53.734;11.510;2022-09-09T08:34:05;6.90;;;5.85;;
13108;SDS011;6620;53.734;11.510;2022-09-09T08:36:32;7.22;;;5.00;;
13108;SDS011;6620;53.734;11.510;2022-09-09T08:39:01;5.60;;;4.90;;
13108;SDS011;6620;53.734;11.510;2022-09-09T08:41:31;5.78;;;5.18;;
13108;SDS011;6620;53.734;11.510;2022-09-09T08:44:01;5.45;;;4.97;;
13108;SDS011;6620;53.734;11.510;2022-09-09T08:46:38;5.90;;;4.50;;
13108;SDS011;6620;53.734;11.510;2022-09-09T08:51:35;5.32;;;4.38;;
13108;SDS011;6620;53.734;11.510;2022-09-09T08:54:02;5.22;;;4.72;;
13108;SDS011;6620;53.734;11.510;2022-09-09T08:56:27;5.25;;;3.95;;
13108;SDS011;6620;53.734;11.510;2022-09-09T08:58:55;7.60;;;4.82;;
13108;SDS011;6620;53.734;11.510;2022-09-09T09:03:53;9.47;;;4.00;;
13108;SDS011;6620;53.734;11.510;2022-09-09T09:06:30;5.03;;;3.53;;
13108;SDS011;6620;53.734;11.510;2022-09-09T09:11:36;5.03;;;3.20;;
13108;SDS011;6620;53.734;11.510;2022-09-09T09:14:21;4.60;;;3.65;;
13108;SDS011;6620;53.734;11.510;2022-09-09T09:16:58;6.82;;;3.40;;
13108;SDS011;6620;53.734;11.510;2022-09-09T09:19:24;3.63;;;3.33;;
13108;SDS011;6620;53.734;11.510;2022-09-09T09:21:53;5.85;;;3.25;;
13108;SDS011;6620;53.734;11.510;2022-09-09T09:24:20;3.72;;;3.15;;
13108;SDS011;6620;53.734;11.510;2022-09-09T09:26:48;3.63;;;3.05;;
13108;SDS011;6620;53.734;11.510;2022-09-09T09:29:15;5.55;;;3.25;;
13108;SDS011;6620;53.734;11.510;2022-09-09T09:31:45;5.63;;;3.25;;
13108;SDS011;6620;53.734;11.510;2022-09-09T09:34:12;3.20;;;2.72;;
13108;SDS011;6620;53.734;11.510;2022-09-09T09:36:41;3.83;;;2.70;;
13108;SDS011;6620;53.734;11.510;2022-09-09T09:39:09;3.10;;;2.70;;
13108;SDS011;6620;53.734;11.510;2022-09-09T09:41:36;6.13;;;2.93;;
13108;SDS011;6620;53.734;11.510;2022-09-09T09:44:04;6.82;;;3.53;;
13108;SDS011;6620;53.734;11.510;2022-09-09T09:46:29;6.25;;;3.35;;
13108;SDS011;6620;53.734;11.510;2022-09-09T09:48:58;4.60;;;3.08;;
13108;SDS011;6620;53.734;11.510;2022-09-09T09:51:24;6.75;;;3.05;;
13108;SDS011;6620;53.734;11.510;2022-09-09T09:53:50;5.35;;;3.03;;
13108;SDS011;6620;53.734;11.510;2022-09-09T09:56:17;4.22;;;2.13;;
13108;SDS011;6620;53.734;11.510;2022-09-09T09:58:51;4.05;;;3.05;;
13108;SDS011;6620;53.734;11.510;2022-09-09T10:01:49;6.82;;;3.03;;
13108;SDS011;6620;53.734;11.510;2022-09-09T10:04:18;5.20;;;3.58;;
13108;SDS011;6620;53.734;11.510;2022-09-09T10:06:45;7.15;;;2.95;;
13108;SDS011;6620;53.734;11.510;2022-09-09T10:09:24;6.55;;;3.40;;
13108;SDS011;6620;53.734;11.510;2022-09-09T10:11:57;3.63;;;3.08;;
13108;SDS011;6620;53.734;11.510;2022-09-09T10:24:26;5.85;;;3.97;;
13108;SDS011;6620;53.734;11.510;2022-09-09T10:37:18;6.13;;;4.35;;
13108;SDS011;6620;53.734;11.510;2022-09-09T10:39:48;3.45;;;3.15;;
13108;SDS011;6620;53.734;11.510;2022-09-09T10:42:16;5.68;;;3.85;;
13108;SDS011;6620;53.734;11.510;2022-09-09T10:47:36;4.10;;;3.67;;
13108;SDS011;6620;53.734;11.510;2022-09-09T10:52:33;3.92;;;3.60;;
13108;SDS011;6620;53.734;11.510;2022-09-09T10:57:40;5.03;;;4.20;;
13108;SDS011;6620;53.734;11.510;2022-09-09T11:00:06;5.03;;;4.53;;
13108;SDS011;6620;53.734;11.510;2022-09-09T11:02:39;5.15;;;4.32;;
13108;SDS011;6620;53.734;11.510;2022-09-09T11:05:09;4.70;;;4.25;;
13108;SDS011;6620;53.734;11.510;2022-09-09T11:07:49;5.78;;;4.50;;
13108;SDS011;6620;53.734;11.510;2022-09-09T11:12:43;5.72;;;4.35;;
13108;SDS011;6620;53.734;11.510;2022-09-09T11:17:52;6.88;;;4.57;;
13108;SDS011;6620;53.734;11.510;2022-09-09T11:20:19;6.47;;;5.03;;
13108;SDS011;6620;53.734;11.510;2022-09-09T11:27:56;5.40;;;3.83;;
13108;SDS011;6620;53.734;11.510;2022-09-09T11:30:27;5.15;;;4.07;;
13108;SDS011;6620;53.734;11.510;2022-09-09T11:38:16;5.10;;;3.78;;
13108;SDS011;6620;53.734;11.510;2022-09-09T11:40:43;5.78;;;3.58;;
13108;SDS011;6620;53.734;11.510;2022-09-09T11:43:10;4.53;;;3.00;;
13108;SDS011;6620;53.734;11.510;2022-09-09T11:45:37;7.53;;;3.25;;
13108;SDS011;6620;53.734;11.510;2022-09-09T11:48:03;5.82;;;3.38;;
13108;SDS011;6620;53.734;11.510;2022-09-09T11:50:30;5.88;;;3.42;;
13108;SDS011;6620;53.734;11.510;2022-09-09T11:53:47;4.47;;;3.30;;
13108;SDS011;6620;53.734;11.510;2022-09-09T11:55:45;3.80;;;3.08;;
13108;SDS011;6620;53.734;11.510;2022-09-09T12:03:05;3.67;;;3.00;;
13108;SDS011;6620;53.734;11.510;2022-09-09T12:05:38;3.85;;;2.90;;
13108;SDS011;6620;53.734;11.510;2022-09-09T12:08:04;5.50;;;2.67;;
13108;SDS011;6620;53.734;11.510;2022-09-09T12:10:30;5.35;;;2.72;;
13108;SDS011;6620;53.734;11.510;2022-09-09T12:13:07;4.68;;;3.20;;
13108;SDS011;6620;53.734;11.510;2022-09-09T12:15:34;5.93;;;2.50;;
13108;SDS011;6620;53.734;11.510;2022-09-09T12:17:59;2.80;;;2.58;;
13108;SDS011;6620;53.734;11.510;2022-09-09T12:25:52;2.47;;;1.98;;
13108;SDS011;6620;53.734;11.510;2022-09-09T12:28:44;3.63;;;2.05;;
13108;SDS011;6620;53.734;11.510;2022-09-09T12:31:08;4.15;;;2.30;;
13108;SDS011;6620;53.734;11.510;2022-09-09T12:33:37;6.82;;;3.30;;
13108;SDS011;6620;53.734;11.510;2022-09-09T12:36:04;5.55;;;2.60;;
13108;SDS011;6620;53.734;11.510;2022-09-09T12:40:56;3.00;;;1.73;;
13108;SDS011;6620;53.734;11.510;2022-09-09T12:43:22;4.55;;;1.75;;
13108;SDS011;6620;53.734;11.510;2022-09-09T12:45:49;3.15;;;1.38;;
13108;SDS011;6620;53.734;11.510;2022-09-09T12:48:21;2.85;;;1.70;;
13108;SDS011;6620;53.734;11.510;2022-09-09T12:50:50;3.90;;;1.80;;
13108;SDS011;6620;53.734;11.510;2022-09-09T12:55:49;6.33;;;1.93;;
13108;SDS011;6620;53.734;11.510;2022-09-09T12:58:15;2.63;;;1.45;;
13108;SDS011;6620;53.734;11.510;2022-09-09T13:00:48;7.25;;;2.13;;
13108;SDS011;6620;53.734;11.510;2022-09-09T13:03:17;3.35;;;1.35;;
13108;SDS011;6620;53.734;11.510;2022-09-09T13:05:42;4.80;;;1.45;;
13108;SDS011;6620;53.734;11.510;2022-09-09T13:08:11;4.50;;;1.23;;
13108;SDS011;6620;53.734;11.510;2022-09-09T13:10:39;6.13;;;1.88;;
13108;SDS011;6620;53.734;11.510;2022-09-09T13:13:13;2.70;;;1.50;;
13108;SDS011;6620;53.734;11.510;2022-09-09T13:15:39;2.65;;;1.40;;
13108;SDS011;6620;53.734;11.510;2022-09-09T13:18:06;3.25;;;1.13;;
13108;SDS011;6620;53.734;11.510;2022-09-09T13:20:31;3.67;;;1.63;;
13108;SDS011;6620;53.734;11.510;2022-09-09T13:22:57;3.07;;;1.50;;
13108;SDS011;6620;53.734;11.510;2022-09-09T13:25:26;2.33;;;1.10;;
13108;SDS011;6620;53.734;11.510;2022-09-09T13:27:58;4.05;;;1.50;;
13108;SDS011;6620;53.734;11.510;2022-09-09T13:35:34;2.78;;;0.80;;
13108;SDS011;6620;53.734;11.510;2022-09-09T13:38:09;2.92;;;0.95;;
13108;SDS011;6620;53.734;11.510;2022-09-09T13:40:34;2.95;;;0.50;;
13108;SDS011;6620;53.734;11.510;2022-09-09T13:42:59;2.33;;;0.43;;
13108;SDS011;6620;53.734;11.510;2022-09-09T13:45:25;3.88;;;0.52;;
13108;SDS011;6620;53.734;11.510;2022-09-09T13:47:52;1.38;;;0.50;;
13108;SDS011;6620;53.734;11.510;2022-09-09T13:50:24;1.48;;;0.50;;
13108;SDS011;6620;53.734;11.510;2022-09-09T13:52:50;3.25;;;0.45;;
13108;SDS011;6620;53.734;11.510;2022-09-09T13:55:18;3.58;;;0.98;;
13108;SDS011;6620;53.734;11.510;2022-09-09T13:57:50;3.38;;;0.68;;
13108;SDS011;6620;53.734;11.510;2022-09-09T14:00:15;1.25;;;0.50;;
13108;SDS011;6620;53.734;11.510;2022-09-09T14:02:40;1.15;;;0.43;;
13108;SDS011;6620;53.734;11.510;2022-09-09T14:05:06;1.83;;;0.80;;
13108;SDS011;6620;53.734;11.510;2022-09-09T14:07:31;4.30;;;0.88;;
13108;SDS011;6620;53.734;11.510;2022-09-09T14:09:57;1.88;;;1.00;;
13108;SDS011;6620;53.734;11.510;2022-09-09T14:12:22;4.57;;;0.70;;
13108;SDS011;6620;53.734;11.510;2022-09-09T14:14:48;1.98;;;0.40;;
13108;SDS011;6620;53.734;11.510;2022-09-09T14:17:14;5.88;;;0.95;;
13108;SDS011;6620;53.734;11.510;2022-09-09T14:19:39;1.77;;;0.70;;
13108;SDS011;6620;53.734;11.510;2022-09-09T14:22:05;2.20;;;0.97;;
13108;SDS011;6620;53.734;11.510;2022-09-09T14:24:30;3.10;;;0.70;;
13108;SDS011;6620;53.734;11.510;2022-09-09T14:26:55;3.85;;;0.80;;
13108;SDS011;6620;53.734;11.510;2022-09-09T14:29:21;1.88;;;0.50;;
13108;SDS011;6620;53.734;11.510;2022-09-09T14:31:46;1.80;;;0.98;;
13108;SDS011;6620;53.734;11.510;2022-09-09T14:34:11;3.00;;;0.80;;
13108;SDS011;6620;53.734;11.510;2022-09-09T14:36:37;2.35;;;0.70;;
13108;SDS011;6620;53.734;11.510;2022-09-09T14:39:02;1.52;;;0.70;;
13108;SDS011;6620;53.734;11.510;2022-09-09T14:41:28;4.53;;;1.45;;
13108;SDS011;6620;53.734;11.510;2022-09-09T14:43:54;3.45;;;0.68;;
13108;SDS011;6620;53.734;11.510;2022-09-09T14:46:20;3.08;;;0.75;;
13108;SDS011;6620;53.734;11.510;2022-09-09T14:48:45;2.60;;;0.88;;
13108;SDS011;6620;53.734;11.510;2022-09-09T14:51:17;2.88;;;0.75;;
13108;SDS011;6620;53.734;11.510;2022-09-09T14:53:44;4.28;;;0.60;;
13108;SDS011;6620;53.734;11.510;2022-09-09T14:56:11;3.15;;;0.70;;
13108;SDS011;6620;53.734;11.510;2022-09-09T14:58:36;4.82;;;0.80;;
13108;SDS011;6620;53.734;11.510;2022-09-09T15:01:12;2.53;;;0.43;;
13108;SDS011;6620;53.734;11.510;2022-09-09T15:03:38;2.70;;;0.75;;
13108;SDS011;6620;53.734;11.510;2022-09-09T15:06:05;3.35;;;0.82;;
13108;SDS011;6620;53.734;11.510;2022-09-09T15:08:30;1.13;;;0.50;;
13108;SDS011;6620;53.734;11.510;2022-09-09T15:10:59;3.93;;;1.40;;
13108;SDS011;6620;53.734;11.510;2022-09-09T15:13:25;3.15;;;0.70;;
13108;SDS011;6620;53.734;11.510;2022-09-09T15:15:50;4.45;;;1.30;;
13108;SDS011;6620;53.734;11.510;2022-09-09T15:18:15;4.13;;;0.90;;
13108;SDS011;6620;53.734;11.510;2022-09-09T15:20:44;3.93;;;0.70;;
13108;SDS011;6620;53.734;11.510;2022-09-09T15:23:11;2.95;;;0.77;;
13108;SDS011;6620;53.734;11.510;2022-09-09T15:25:36;0.30;;;0.20;;
13108;SDS011;6620;53.734;11.510;2022-09-09T15:28:01;3.50;;;0.45;;
13108;SDS011;6620;53.734;11.510;2022-09-09T15:30:26;1.27;;;0.10;;
13108;SDS011;6620;53.734;11.510;2022-09-09T15:32:52;0.30;;;0.10;;
13108;SDS011;6620;53.734;11.510;2022-09-09T15:35:17;0.52;;;0.30;;
13108;SDS011;6620;53.734;11.510;2022-09-09T15:37:43;4.97;;;0.20;;
13108;SDS011;6620;53.734;11.510;2022-09-09T15:40:08;1.63;;;0.23;;
13108;SDS011;6620;53.734;11.510;2022-09-09T15:42:33;2.30;;;0.40;;
13108;SDS011;6620;53.734;11.510;2022-09-09T15:44:58;0.60;;;0.20;;
13108;SDS011;6620;53.734;11.510;2022-09-09T15:47:24;7.05;;;2.17;;
13108;SDS011;6620;53.734;11.510;2022-09-09T15:49:49;1.83;;;0.27;;
13108;SDS011;6620;53.734;11.510;2022-09-09T15:52:15;0.55;;;0.10;;
13108;SDS011;6620;53.734;11.510;2022-09-09T15:54:40;6.28;;;0.20;;
13108;SDS011;6620;53.734;11.510;2022-09-09T15:57:09;1.75;;;0.30;;
13108;SDS011;6620;53.734;11.510;2022-09-09T15:59:37;1.65;;;0.17;;
13108;SDS011;6620;53.734;11.510;2022-09-09T16:02:02;0.93;;;0.20;;
13108;SDS011;6620;53.734;11.510;2022-09-09T16:04:28;1.65;;;0.20;;
13108;SDS011;6620;53.734;11.510;2022-09-09T16:07:00;0.38;;;0.20;;
13108;SDS011;6620;53.734;11.510;2022-09-09T16:09:26;2.30;;;0.35;;
13108;SDS011;6620;53.734;11.510;2022-09-09T16:11:52;3.00;;;0.28;;
13108;SDS011;6620;53.734;11.510;2022-09-09T16:14:18;1.08;;;0.30;;
13108;SDS011;6620;53.734;11.510;2022-09-09T16:16:44;0.90;;;0.30;;
13108;SDS011;6620;53.734;11.510;2022-09-09T16:19:10;1.63;;;0.40;;
13108;SDS011;6620;53.734;11.510;2022-09-09T16:21:37;4.45;;;0.47;;
13108;SDS011;6620;53.734;11.510;2022-09-09T16:24:03;2.83;;;0.50;;
13108;SDS011;6620;53.734;11.510;2022-09-09T16:26:29;2.60;;;0.50;;
13108;SDS011;6620;53.734;11.510;2022-09-09T16:28:55;3.80;;;0.40;;
13108;SDS011;6620;53.734;11.510;2022-09-09T16:31:21;3.40;;;0.60;;
13108;SDS011;6620;53.734;11.510;2022-09-09T16:33:46;1.80;;;0.40;;
13108;SDS011;6620;53.734;11.510;2022-09-09T16:36:13;2.88;;;0.90;;
13108;SDS011;6620;53.734;11.510;2022-09-09T16:38:39;2.65;;;0.60;;
13108;SDS011;6620;53.734;11.510;2022-09-09T16:41:05;2.03;;;1.10;;
13108;SDS011;6620;53.734;11.510;2022-09-09T16:43:31;3.78;;;0.80;;
13108;SDS011;6620;53.734;11.510;2022-09-09T16:45:56;4.70;;;0.80;;
13108;SDS011;6620;53.734;11.510;2022-09-09T16:48:21;9.88;;;0.70;;